createdAt,value
2023-02-11T00:01:10.372Z,13.18
2023-02-11T00:03:38.664Z,13.70
2023-02-11T00:06:11.105Z,12.57
2023-02-11T00:08:38.853Z,11.82
2023-02-11T00:11:05.947Z,12.07
2023-02-11T00:13:32.806Z,14.20
2023-02-11T00:15:59.592Z,13.93
2023-02-11T00:18:26.279Z,15.20
2023-02-11T00:20:53.214Z,13.55
2023-02-11T00:23:19.975Z,13.90
2023-02-11T00:25:46.676Z,12.10
2023-02-11T00:28:13.385Z,13.95
2023-02-11T00:30:40.387Z,12.05
2023-02-11T00:33:07.195Z,13.65
2023-02-11T00:35:33.854Z,12.60
2023-02-11T00:38:00.597Z,12.80
2023-02-11T00:40:27.676Z,12.90
2023-02-11T00:42:54.367Z,12.27
2023-02-11T00:45:21.299Z,12.60
2023-02-11T00:47:48.254Z,11.23
2023-02-11T00:50:15.053Z,11.20
2023-02-11T00:52:41.881Z,10.82
2023-02-11T00:55:09.152Z,11.77
2023-02-11T00:57:35.873Z,10.23
2023-02-11T01:00:03.856Z,10.60
2023-02-11T01:02:30.526Z,10.43
2023-02-11T01:04:59.558Z,11.02
2023-02-11T01:07:27.180Z,10.88
2023-02-11T01:09:54.053Z,10.13
2023-02-11T01:12:21.280Z,11.82
2023-02-11T01:14:48.181Z,10.65
2023-02-11T01:17:15.662Z,10.13
2023-02-11T01:19:42.373Z,11.07
2023-02-11T01:22:09.057Z,11.20
2023-02-11T01:24:35.739Z,9.50
2023-02-11T01:27:02.451Z,12.15
2023-02-11T01:29:29.211Z,11.25
2023-02-11T01:31:55.880Z,10.65
2023-02-11T01:34:22.593Z,11.15
2023-02-11T01:36:49.226Z,10.70
2023-02-11T01:39:15.920Z,9.88
2023-02-11T01:41:42.617Z,11.05
2023-02-11T01:44:36.237Z,10.32
2023-02-11T01:47:05.946Z,10.73
2023-02-11T01:49:47.346Z,11.07
2023-02-11T01:52:29.328Z,10.35
2023-02-11T01:55:20.321Z,9.95
2023-02-11T01:57:52.699Z,10.50
2023-02-11T02:00:28.830Z,9.20
2023-02-11T02:03:22.532Z,9.45
2023-02-11T02:05:57.639Z,11.68
2023-02-11T02:08:29.398Z,9.05
2023-02-11T02:10:58.444Z,8.52
2023-02-11T02:13:25.855Z,8.90
2023-02-11T02:15:54.817Z,9.00
2023-02-11T02:18:39.940Z,9.15
2023-02-11T02:21:28.495Z,8.90
2023-02-11T02:24:18.714Z,8.65
2023-02-11T02:27:04.289Z,8.82
2023-02-11T02:29:56.800Z,8.57
2023-02-11T02:32:49.142Z,8.50
2023-02-11T02:35:52.711Z,8.30
2023-02-11T02:38:27.989Z,7.93
2023-02-11T02:41:03.573Z,9.15
2023-02-11T02:43:31.190Z,8.60
2023-02-11T02:46:20.473Z,8.23
2023-02-11T02:48:49.604Z,8.25
2023-02-11T02:51:31.288Z,11.63
2023-02-11T02:54:36.935Z,8.80
2023-02-11T02:57:32.647Z,8.95
2023-02-11T03:00:14.237Z,7.97
2023-02-11T03:02:43.965Z,8.27
2023-02-11T03:05:16.471Z,8.32
2023-02-11T03:07:48.241Z,8.18
2023-02-11T03:10:25.003Z,8.00
2023-02-11T03:12:53.561Z,7.50
2023-02-11T03:15:23.062Z,8.15
2023-02-11T03:17:52.987Z,7.30
2023-02-11T03:20:22.907Z,6.65
2023-02-11T03:22:52.225Z,7.95
2023-02-11T03:25:20.620Z,6.88
2023-02-11T03:27:54.062Z,6.88
2023-02-11T03:30:26.957Z,7.38
2023-02-11T03:33:07.227Z,6.88
2023-02-11T03:35:44.701Z,6.70
2023-02-11T03:38:37.449Z,7.15
2023-02-11T03:41:06.858Z,7.60
2023-02-11T03:43:46.273Z,6.95
2023-02-11T03:46:16.279Z,7.03
2023-02-11T03:48:49.223Z,6.50
2023-02-11T03:51:16.990Z,7.45
2023-02-11T03:53:46.400Z,6.35
2023-02-11T03:56:17.749Z,6.43
2023-02-11T03:58:45.688Z,6.35
2023-02-11T04:01:12.586Z,5.63
2023-02-11T04:03:39.304Z,9.38
2023-02-11T04:06:06.606Z,5.40
2023-02-11T04:08:33.307Z,6.70
2023-02-11T04:10:59.986Z,7.28
2023-02-11T04:13:26.719Z,7.03
2023-02-11T04:15:53.732Z,6.70
2023-02-11T04:18:20.628Z,5.55
2023-02-11T04:20:47.833Z,6.32
2023-02-11T04:23:14.482Z,6.97
2023-02-11T04:25:41.102Z,6.97
2023-02-11T04:28:07.814Z,6.07
2023-02-11T04:30:34.509Z,6.55
2023-02-11T04:33:01.155Z,9.07
2023-02-11T04:35:27.810Z,5.47
2023-02-11T04:37:54.488Z,6.28
2023-02-11T04:40:21.142Z,6.45
2023-02-11T04:42:47.777Z,6.15
2023-02-11T04:45:14.426Z,6.50
2023-02-11T04:47:41.063Z,6.45
2023-02-11T04:50:07.751Z,7.60
2023-02-11T04:52:34.428Z,5.78
2023-02-11T04:55:01.117Z,7.00
2023-02-11T04:57:27.998Z,7.13
2023-02-11T04:59:54.622Z,5.60
2023-02-11T05:02:21.430Z,5.97
2023-02-11T05:04:48.129Z,5.70
2023-02-11T05:07:14.761Z,5.07
2023-02-11T05:09:41.531Z,5.22
2023-02-11T05:12:08.887Z,13.18
2023-02-11T05:14:35.568Z,4.88
2023-02-11T05:17:02.279Z,5.38
2023-02-11T05:19:29.000Z,5.25
2023-02-11T05:22:02.612Z,5.80
2023-02-11T05:24:31.943Z,5.45
2023-02-11T05:26:58.648Z,7.63
2023-02-11T05:29:25.296Z,4.93
2023-02-11T05:31:52.486Z,6.05
2023-02-11T05:34:19.254Z,5.63
2023-02-11T05:36:45.945Z,5.30
2023-02-11T05:39:12.627Z,5.38
2023-02-11T05:41:39.347Z,4.60
2023-02-11T05:44:06.039Z,5.30
2023-02-11T05:46:32.757Z,4.88
2023-02-11T05:48:59.551Z,5.20
2023-02-11T05:51:26.250Z,4.45
2023-02-11T05:53:53.194Z,4.32
2023-02-11T05:56:19.860Z,4.63
2023-02-11T05:58:46.624Z,4.35
2023-02-11T06:01:13.395Z,4.80
2023-02-11T06:03:40.182Z,4.63
2023-02-11T06:06:11.417Z,4.57
2023-02-11T06:08:39.454Z,4.32
2023-02-11T06:11:06.370Z,4.80
2023-02-11T06:13:33.060Z,4.55
2023-02-11T06:16:01.381Z,5.00
2023-02-11T06:18:28.466Z,4.32
2023-02-11T06:20:55.934Z,4.97
2023-02-11T06:23:22.703Z,4.85
2023-02-11T06:25:50.024Z,5.80
2023-02-11T06:28:16.970Z,5.63
2023-02-11T06:30:43.813Z,6.07
2023-02-11T06:33:10.636Z,4.20
2023-02-11T06:35:40.131Z,5.18
2023-02-11T06:38:06.823Z,5.93
2023-02-11T06:40:33.485Z,4.90
2023-02-11T06:43:00.315Z,5.20
2023-02-11T06:45:26.990Z,5.65
2023-02-11T06:47:53.651Z,6.43
2023-02-11T06:50:20.757Z,6.13
2023-02-11T06:52:47.562Z,5.40
2023-02-11T06:55:15.184Z,5.40
2023-02-11T06:57:41.872Z,8.30
2023-02-11T07:00:09.499Z,9.52
2023-02-11T07:02:36.445Z,6.47
2023-02-11T07:05:04.861Z,11.73
2023-02-11T07:07:34.099Z,5.78
2023-02-11T07:10:03.039Z,5.60
2023-02-11T07:12:30.671Z,5.38
2023-02-11T07:14:58.154Z,5.78
2023-02-11T07:17:24.885Z,6.88
2023-02-11T07:19:51.698Z,7.15
2023-02-11T07:22:18.374Z,6.25
2023-02-11T07:24:45.429Z,7.75
2023-02-11T07:27:12.231Z,6.40
2023-02-11T07:29:39.818Z,7.05
2023-02-11T07:32:06.793Z,6.65
2023-02-11T07:34:33.873Z,7.00
2023-02-11T07:37:00.514Z,6.28
2023-02-11T07:39:27.442Z,5.80
2023-02-11T07:41:54.674Z,8.00
2023-02-11T07:44:21.471Z,5.82
2023-02-11T07:46:49.203Z,5.20
2023-02-11T07:49:16.876Z,5.55
2023-02-11T07:51:43.621Z,5.30
2023-02-11T07:54:11.599Z,4.40
2023-02-11T07:56:38.364Z,4.85
2023-02-11T07:59:05.135Z,6.15
2023-02-11T08:01:32.433Z,4.85
2023-02-11T08:04:00.814Z,4.70
2023-02-11T08:06:30.319Z,4.60
2023-02-11T08:08:57.173Z,4.70
2023-02-11T08:11:28.717Z,4.70
2023-02-11T08:13:56.576Z,5.40
2023-02-11T08:16:29.159Z,5.50
2023-02-11T08:18:57.990Z,7.55
2023-02-11T08:21:25.498Z,6.05
2023-02-11T08:23:52.396Z,7.22
2023-02-11T08:26:22.044Z,10.00
2023-02-11T08:28:50.770Z,9.50
2023-02-11T08:31:23.638Z,7.40
2023-02-11T08:33:51.194Z,8.40
2023-02-11T08:36:23.345Z,6.78
2023-02-11T08:38:50.041Z,7.72
2023-02-11T08:41:17.949Z,7.88
2023-02-11T08:43:46.113Z,9.38
2023-02-11T08:46:15.577Z,9.52
2023-02-11T08:48:43.158Z,8.93
2023-02-11T08:51:13.470Z,8.30
2023-02-11T08:53:40.223Z,8.00
2023-02-11T08:56:06.993Z,8.18
2023-02-11T08:58:33.658Z,8.00
2023-02-11T09:01:00.481Z,7.70
2023-02-11T09:03:27.434Z,7.30
2023-02-11T09:05:54.822Z,7.57
2023-02-11T09:08:21.587Z,10.43
2023-02-11T09:10:48.510Z,16.77
2023-02-11T09:13:16.436Z,9.15
2023-02-11T09:15:46.305Z,11.18
2023-02-11T09:18:12.954Z,8.75
2023-02-11T09:20:39.722Z,10.85
2023-02-11T09:23:06.421Z,8.68
2023-02-11T09:25:33.049Z,7.88
2023-02-11T09:27:59.697Z,8.18
2023-02-11T09:30:26.561Z,8.93
2023-02-11T09:32:53.277Z,8.57
2023-02-11T09:35:19.937Z,8.80
2023-02-11T09:37:46.619Z,9.88
2023-02-11T09:40:14.954Z,8.48
2023-02-11T09:43:06.545Z,9.95
2023-02-11T09:45:33.350Z,11.57
2023-02-11T09:48:06.436Z,10.90
2023-02-11T09:50:40.771Z,10.77
2023-02-11T09:53:36.476Z,9.70
2023-02-11T09:56:11.261Z,9.05
2023-02-11T09:58:41.378Z,9.05
2023-02-11T10:01:23.048Z,8.65
2023-02-11T10:04:02.270Z,7.45
2023-02-11T10:06:48.974Z,8.25
2023-02-11T10:09:39.075Z,9.20
2023-02-11T10:12:17.796Z,10.70
2023-02-11T10:14:50.429Z,10.85
2023-02-11T10:17:22.991Z,9.85
2023-02-11T10:19:59.985Z,10.00
2023-02-11T10:22:41.572Z,9.75
2023-02-11T10:25:28.483Z,8.30
2023-02-11T10:27:57.907Z,11.30
2023-02-11T10:30:51.415Z,9.32
2023-02-11T10:33:36.349Z,12.02
2023-02-11T10:36:04.773Z,15.68
2023-02-11T10:38:32.994Z,13.10
2023-02-11T10:41:00.039Z,12.57
2023-02-11T10:43:28.837Z,10.95
2023-02-11T10:45:56.610Z,10.57
2023-02-11T10:48:43.627Z,10.23
2023-02-11T10:51:14.540Z,11.07
2023-02-11T10:53:41.482Z,11.43
2023-02-11T10:56:12.011Z,12.57
2023-02-11T10:58:46.066Z,18.50
2023-02-11T11:01:23.968Z,12.80
2023-02-11T11:03:52.830Z,12.43
2023-02-11T11:06:33.733Z,17.88
2023-02-11T11:09:01.206Z,13.85
2023-02-11T11:11:27.934Z,13.13
2023-02-11T11:13:58.201Z,13.48
2023-02-11T11:16:27.602Z,16.75
2023-02-11T11:19:06.647Z,14.23
2023-02-11T11:21:52.456Z,12.70
2023-02-11T11:24:34.545Z,11.63
2023-02-11T11:27:04.178Z,16.58
2023-02-11T11:29:48.061Z,14.98
2023-02-11T11:32:37.080Z,12.93
2023-02-11T11:35:09.705Z,15.05
2023-02-11T11:37:38.628Z,15.30
2023-02-11T11:40:13.358Z,13.23
2023-02-11T11:42:40.453Z,13.37
2023-02-11T11:45:16.309Z,11.90
2023-02-11T11:47:54.878Z,11.50
2023-02-11T11:50:47.474Z,12.93
2023-02-11T11:53:26.039Z,11.47
2023-02-11T11:56:19.854Z,12.03
2023-02-11T11:58:46.885Z,14.40
2023-02-11T12:01:34.280Z,12.00
2023-02-11T12:04:19.494Z,13.50
2023-02-11T12:07:00.431Z,18.53
2023-02-11T12:09:45.237Z,14.20
2023-02-11T12:12:33.247Z,14.37
2023-02-11T12:15:26.284Z,14.50
2023-02-11T12:18:28.168Z,13.47
2023-02-11T12:21:23.924Z,13.13
2023-02-11T12:24:17.203Z,15.80
2023-02-11T12:27:01.134Z,14.23
2023-02-11T12:29:54.961Z,15.50
2023-02-11T12:32:44.112Z,14.52
2023-02-11T12:35:22.947Z,13.67
2023-02-11T12:38:18.895Z,13.67
2023-02-11T12:40:51.059Z,14.30
2023-02-11T12:43:24.882Z,15.00
2023-02-11T12:46:05.119Z,16.90
2023-02-11T12:48:57.130Z,14.03
2023-02-11T12:51:31.929Z,12.50
2023-02-11T12:54:17.495Z,16.20
2023-02-11T12:57:02.317Z,10.80
2023-02-11T12:59:59.504Z,13.87
2023-02-11T13:02:36.659Z,16.77
2023-02-11T13:05:25.980Z,13.00
2023-02-11T13:07:58.118Z,14.30
2023-02-11T13:10:35.231Z,13.57
2023-02-11T13:13:18.976Z,13.50
2023-02-11T13:16:09.989Z,16.93
2023-02-11T13:18:45.633Z,11.07
2023-02-11T13:21:15.471Z,11.57
2023-02-11T13:24:01.000Z,11.07
2023-02-11T13:27:10.101Z,11.53
2023-02-11T13:30:04.413Z,12.10
2023-02-11T13:32:56.089Z,16.07
2023-02-11T13:35:34.984Z,13.83
2023-02-11T13:38:04.972Z,13.83
2023-02-11T13:40:36.455Z,10.10
2023-02-11T13:43:06.080Z,12.60
2023-02-11T13:45:46.096Z,10.70
2023-02-11T13:48:24.629Z,10.50
2023-02-11T13:50:54.247Z,9.67
2023-02-11T13:53:21.649Z,11.43
2023-02-11T13:55:51.947Z,11.83
2023-02-11T13:58:27.505Z,16.20
2023-02-11T14:00:54.974Z,14.00
2023-02-11T14:03:46.084Z,13.53
2023-02-11T14:06:41.157Z,11.40
2023-02-11T14:09:17.753Z,12.23
2023-02-11T14:11:48.189Z,12.30
2023-02-11T14:14:24.323Z,11.03
2023-02-11T14:17:00.740Z,10.43
2023-02-11T14:19:47.168Z,10.00
2023-02-11T14:22:31.604Z,12.57
2023-02-11T14:25:03.106Z,11.10
2023-02-11T14:27:42.430Z,11.57
2023-02-11T14:30:32.026Z,10.90
2023-02-11T14:33:30.900Z,13.33
2023-02-11T14:36:43.725Z,11.17
2023-02-11T14:39:28.206Z,12.53
2023-02-11T14:41:55.553Z,14.13
2023-02-11T14:44:30.791Z,12.07
2023-02-11T14:46:58.312Z,11.90
2023-02-11T14:49:31.347Z,12.63
2023-02-11T14:52:06.109Z,12.20
2023-02-11T14:54:34.946Z,13.57
2023-02-11T14:57:11.943Z,17.63
2023-02-11T14:59:39.097Z,14.00
2023-02-11T15:02:26.059Z,17.87
2023-02-11T15:04:52.802Z,16.10
2023-02-11T15:07:19.486Z,13.13
2023-02-11T15:09:52.515Z,13.93
2023-02-11T15:12:23.667Z,12.37
2023-02-11T15:14:53.626Z,15.60
2023-02-11T15:17:24.676Z,17.40
2023-02-11T15:19:57.837Z,14.03
2023-02-11T15:22:28.148Z,18.30
2023-02-11T15:25:11.342Z,16.10
2023-02-11T15:27:43.844Z,15.13
2023-02-11T15:30:36.885Z,16.30
2023-02-11T15:33:05.857Z,18.20
2023-02-11T15:35:40.919Z,15.40
2023-02-11T15:38:08.133Z,15.43
2023-02-11T15:40:36.959Z,16.77
2023-02-11T15:43:08.984Z,17.40
2023-02-11T15:45:38.020Z,15.27
2023-02-11T15:48:17.589Z,16.37
2023-02-11T15:50:51.365Z,17.23
2023-02-11T15:53:57.045Z,18.20
2023-02-11T15:56:30.506Z,15.50
2023-02-11T15:59:02.553Z,15.43
2023-02-11T16:01:35.755Z,17.27
2023-02-11T16:04:05.299Z,17.70
2023-02-11T16:06:36.924Z,16.57
2023-02-11T16:09:08.812Z,18.43
2023-02-11T16:11:53.612Z,17.90
2023-02-11T16:14:37.083Z,19.37
2023-02-11T16:17:12.858Z,15.00
2023-02-11T16:19:45.632Z,26.23
2023-02-11T16:22:22.548Z,23.90
2023-02-11T16:24:51.004Z,21.50
2023-02-11T16:27:17.610Z,18.63
2023-02-11T16:29:48.445Z,19.17
2023-02-11T16:32:19.420Z,23.30
2023-02-11T16:34:47.216Z,24.87
2023-02-11T16:37:13.870Z,28.10
2023-02-11T16:39:40.766Z,21.10
2023-02-11T16:42:07.897Z,21.23
2023-02-11T16:44:34.897Z,18.50
2023-02-11T16:47:06.174Z,17.87
2023-02-11T16:49:40.346Z,17.13
2023-02-11T16:52:12.540Z,16.77
2023-02-11T16:54:39.268Z,16.93
2023-02-11T16:57:16.934Z,18.37
2023-02-11T16:59:44.799Z,16.17
2023-02-11T17:02:30.508Z,19.05
2023-02-11T17:05:00.660Z,19.90
2023-02-11T17:07:28.134Z,17.73
2023-02-11T17:09:54.886Z,18.63
2023-02-11T17:12:21.942Z,17.00
2023-02-11T17:14:48.580Z,17.40
2023-02-11T17:17:15.942Z,19.75
2023-02-11T17:19:42.698Z,17.25
2023-02-11T17:22:11.213Z,18.57
2023-02-11T17:24:38.035Z,17.67
2023-02-11T17:27:04.910Z,17.07
2023-02-11T17:29:31.612Z,16.10
2023-02-11T17:31:58.377Z,16.23
2023-02-11T17:34:25.252Z,16.40
2023-02-11T17:36:51.984Z,16.70
2023-02-11T17:39:20.928Z,14.38
2023-02-11T17:41:47.639Z,20.10
2023-02-11T17:44:15.430Z,15.43
2023-02-11T17:46:42.373Z,16.40
2023-02-11T17:49:11.213Z,20.13
2023-02-11T17:51:39.925Z,19.00
2023-02-11T17:54:10.722Z,19.17
2023-02-11T17:56:38.004Z,19.80
2023-02-11T17:59:06.768Z,19.90
2023-02-11T18:01:34.355Z,17.33
2023-02-11T18:04:01.724Z,16.80
2023-02-11T18:06:31.429Z,21.20
2023-02-11T18:08:59.852Z,18.10
2023-02-11T18:11:27.827Z,18.33
2023-02-11T18:13:54.656Z,20.20
2023-02-11T18:16:23.137Z,20.92
2023-02-11T18:18:50.528Z,21.17
2023-02-11T18:21:20.065Z,23.60
2023-02-11T18:23:47.836Z,22.13
2023-02-11T18:26:16.222Z,22.20
2023-02-11T18:28:45.683Z,21.42
2023-02-11T18:31:13.755Z,26.83
2023-02-11T18:33:42.013Z,21.10
2023-02-11T18:36:11.806Z,23.83
2023-02-11T18:38:39.215Z,20.90
2023-02-11T18:41:07.296Z,20.92
2023-02-11T18:43:34.713Z,23.20
2023-02-11T18:46:06.113Z,22.88
2023-02-11T18:48:32.914Z,18.85
2023-02-11T18:50:59.567Z,18.60
2023-02-11T18:53:26.248Z,17.85
2023-02-11T18:55:53.979Z,17.27
2023-02-11T18:58:23.806Z,18.42
2023-02-11T19:00:50.961Z,19.08
2023-02-11T19:03:17.887Z,18.95
2023-02-11T19:05:49.184Z,19.08
2023-02-11T19:08:16.970Z,19.38
2023-02-11T19:10:46.493Z,18.67
2023-02-11T19:13:13.770Z,18.55
2023-02-11T19:15:42.025Z,18.02
2023-02-11T19:18:08.840Z,18.55
2023-02-11T19:20:35.615Z,19.77
2023-02-11T19:23:02.345Z,18.40
2023-02-11T19:25:29.162Z,22.90
2023-02-11T19:27:55.833Z,18.73
2023-02-11T19:30:22.554Z,19.33
2023-02-11T19:32:53.201Z,19.15
2023-02-11T19:35:20.324Z,19.40
2023-02-11T19:37:46.991Z,19.15
2023-02-11T19:40:15.475Z,17.60
2023-02-11T19:42:42.658Z,18.13
2023-02-11T19:45:09.749Z,18.05
2023-02-11T19:47:37.078Z,19.00
2023-02-11T19:50:05.669Z,18.05
2023-02-11T19:52:32.369Z,17.08
2023-02-11T19:55:00.123Z,18.65
2023-02-11T19:57:26.753Z,17.85
2023-02-11T19:59:55.035Z,23.23
2023-02-11T20:02:21.791Z,22.70
2023-02-11T20:04:48.591Z,20.27
2023-02-11T20:07:15.623Z,19.42
2023-02-11T20:09:42.596Z,18.45
2023-02-11T20:12:09.697Z,20.63
2023-02-11T20:14:36.451Z,20.10
2023-02-11T20:17:03.136Z,18.00
2023-02-11T20:19:30.589Z,18.13
2023-02-11T20:21:57.260Z,18.70
2023-02-11T20:24:25.388Z,20.83
2023-02-11T20:26:55.764Z,24.75
2023-02-11T20:29:24.087Z,25.13
2023-02-11T20:31:51.294Z,19.90
2023-02-11T20:34:18.325Z,20.23
2023-02-11T20:36:51.703Z,22.92
2023-02-11T20:39:21.601Z,21.95
2023-02-11T20:41:48.824Z,24.60
2023-02-11T20:44:15.518Z,20.70
2023-02-11T20:46:46.428Z,22.33
2023-02-11T20:49:16.042Z,21.55
2023-02-11T20:51:43.076Z,21.20
2023-02-11T20:54:18.807Z,20.33
2023-02-11T20:56:48.077Z,22.05
2023-02-11T20:59:16.580Z,20.25
2023-02-11T21:01:46.856Z,23.90
2023-02-11T21:04:19.456Z,23.77
2023-02-11T21:06:49.074Z,24.20
2023-02-11T21:09:19.811Z,26.27
2023-02-11T21:11:47.843Z,20.58
2023-02-11T21:14:15.034Z,20.45
2023-02-11T21:16:42.257Z,20.17
2023-02-11T21:19:09.017Z,23.65
2023-02-11T21:21:37.362Z,22.95
2023-02-11T21:24:05.268Z,21.80
2023-02-11T21:26:32.192Z,20.92
2023-02-11T21:28:58.893Z,21.70
2023-02-11T21:31:28.699Z,21.02
2023-02-11T21:33:56.592Z,20.65
2023-02-11T21:36:24.214Z,21.55
2023-02-11T21:38:51.192Z,22.58
2023-02-11T21:41:21.791Z,20.95
2023-02-11T21:43:48.933Z,21.63
2023-02-11T21:46:16.668Z,19.67
2023-02-11T21:48:43.485Z,19.65
2023-02-11T21:51:14.885Z,21.85
2023-02-11T21:53:41.671Z,22.17
2023-02-11T21:56:11.862Z,20.23
2023-02-11T21:58:38.782Z,17.67
2023-02-11T22:01:18.408Z,18.20
2023-02-11T22:03:45.852Z,16.77
2023-02-11T22:06:21.255Z,21.08
2023-02-11T22:08:51.520Z,20.15
2023-02-11T22:11:18.764Z,20.92
2023-02-11T22:13:46.591Z,20.67
2023-02-11T22:16:16.143Z,20.70
2023-02-11T22:18:46.308Z,21.75
2023-02-11T22:21:16.398Z,23.98
2023-02-11T22:23:43.204Z,21.13
2023-02-11T22:26:19.465Z,20.50
2023-02-11T22:28:47.622Z,21.48
2023-02-11T22:31:17.176Z,22.20
2023-02-11T22:33:44.361Z,23.02
2023-02-11T22:36:16.531Z,21.20
2023-02-11T22:38:43.442Z,18.98
2023-02-11T22:41:11.472Z,19.42
2023-02-11T22:43:38.533Z,17.17
2023-02-11T22:46:07.209Z,18.45
2023-02-11T22:48:35.339Z,17.42
2023-02-11T22:51:10.102Z,19.63
2023-02-11T22:53:36.883Z,20.48
2023-02-11T22:56:09.085Z,19.93
2023-02-11T22:58:36.892Z,17.70
2023-02-11T23:01:04.816Z,18.25
2023-02-11T23:03:32.451Z,17.58
2023-02-11T23:06:00.042Z,16.77
2023-02-11T23:08:28.317Z,20.75
2023-02-11T23:10:55.209Z,17.48
2023-02-11T23:13:21.873Z,18.77
2023-02-11T23:15:48.527Z,16.17
2023-02-11T23:18:15.641Z,16.00
2023-02-11T23:20:44.074Z,17.35
2023-02-11T23:23:11.305Z,17.90
2023-02-11T23:25:42.928Z,20.35
2023-02-11T23:28:10.378Z,20.65
2023-02-11T23:30:37.325Z,17.30
2023-02-11T23:33:04.075Z,16.95
2023-02-11T23:35:30.784Z,18.42
2023-02-11T23:37:57.494Z,16.85
2023-02-11T23:40:24.187Z,17.60
2023-02-11T23:42:51.548Z,18.92
2023-02-11T23:45:18.318Z,18.60
2023-02-11T23:47:45.079Z,18.23
2023-02-11T23:50:12.120Z,17.67
2023-02-11T23:52:39.034Z,19.67
2023-02-11T23:55:06.286Z,16.90
2023-02-11T23:57:33.573Z,17.73
